Time;durP1;ratioP1;P1;durP2;ratioP2;P2;SDS_P1;SDS_P2;PMS_P1;PMS_P2;Temp;Humidity;BMP_temperature;BMP_pressure;BME280_temperature;BME280_humidity;BME280_pressure;Samples;Min_cycle;Max_cycle;Signal;HPM_P1;HPM_P2
2024/04/12 00:01:15;;;;;;;7.30;3.13;;;18.50;42.60;;;;;;5401871;26;20464;-58
2024/04/12 00:03:41;;;;;;;4.67;3.20;;;18.40;43.00;;;;;;5401334;26;20471;-58
2024/04/12 00:06:17;;;;;;;3.57;3.10;;;18.30;43.20;;;;;;5399191;26;21626;-57
2024/04/12 00:08:48;;;;;;;7.47;3.17;;;18.30;43.40;;;;;;5395884;26;21025;-58
2024/04/12 00:11:21;;;;;;;3.77;3.37;;;18.20;43.30;;;;;;5399351;26;20564;-58
2024/04/12 00:13:48;;;;;;;5.23;3.00;;;18.20;43.60;;;;;;5400108;26;20471;-58
2024/04/12 00:16:23;;;;;;;4.67;3.07;;;18.10;43.80;;;;;;5402782;26;20472;-57
2024/04/12 00:18:58;;;;;;;3.40;3.10;;;17.80;44.30;;;;;;5396860;26;20821;-59
2024/04/12 00:21:24;;;;;;;5.43;3.23;;;17.60;45.00;;;;;;5401133;26;20982;-58
2024/04/12 00:23:53;;;;;;;3.60;3.30;;;17.60;45.00;;;;;;5408576;26;20532;-59
2024/04/12 00:26:19;;;;;;;3.17;2.87;;;17.60;44.80;;;;;;5402786;26;20233;-57
2024/04/12 00:28:47;;;;;;;4.33;3.10;;;17.70;44.90;;;;;;5404662;26;20546;-60
2024/04/12 00:31:13;;;;;;;3.40;3.10;;;17.70;44.80;;;;;;5412090;26;20455;-61
2024/04/12 00:33:40;;;;;;;5.20;3.33;;;17.70;44.90;;;;;;5412202;26;20519;-60
2024/04/12 00:36:08;;;;;;;6.17;3.47;;;17.80;44.90;;;;;;5391906;26;20468;-60
2024/04/12 00:38:38;;;;;;;6.90;2.90;;;17.80;44.60;;;;;;5389046;26;20541;-61
2024/04/12 00:41:14;;;;;;;6.93;3.07;;;17.80;44.70;;;;;;5398150;26;20745;-61
2024/04/12 00:43:47;;;;;;;3.90;2.97;;;17.80;44.90;;;;;;5402460;26;20471;-57
2024/04/12 00:46:18;;;;;;;5.17;3.40;;;17.60;45.00;;;;;;5398448;26;20874;-61
2024/04/12 00:48:45;;;;;;;3.30;3.00;;;17.50;45.40;;;;;;5400063;26;20846;-61
2024/04/12 00:51:15;;;;;;;6.13;3.20;;;17.20;45.80;;;;;;5390873;26;20465;-59
2024/04/12 00:53:44;;;;;;;6.87;2.80;;;17.10;46.20;;;;;;5391408;26;20969;-61
2024/04/12 00:56:13;;;;;;;4.03;3.20;;;17.10;46.50;;;;;;5396726;26;20485;-60
2024/04/12 00:58:41;;;;;;;2.90;2.70;;;17.00;46.30;;;;;;5388916;26;20806;-61
2024/04/12 01:01:16;;;;;;;5.50;3.20;;;17.10;46.20;;;;;;5395659;26;20467;-61
2024/04/12 01:03:47;;;;;;;4.97;2.60;;;17.00;46.40;;;;;;5411456;26;20491;-60
2024/04/12 01:06:15;;;;;;;4.53;2.80;;;16.90;46.80;;;;;;5397861;26;20465;-59
2024/04/12 01:08:43;;;;;;;5.33;2.67;;;16.90;46.80;;;;;;5404182;26;20471;-62
2024/04/12 01:11:13;;;;;;;4.23;2.47;;;16.90;46.70;;;;;;5405328;26;20527;-60
2024/04/12 01:13:40;;;;;;;7.00;2.73;;;16.90;46.80;;;;;;5394215;26;20460;-59
2024/04/12 01:16:07;;;;;;;4.17;3.00;;;16.90;46.90;;;;;;5408101;26;20552;-58
2024/04/12 01:18:32;;;;;;;4.23;2.83;;;16.90;46.70;;;;;;5393539;26;20554;-59
2024/04/12 01:21:10;;;;;;;3.90;2.90;;;17.00;46.00;;;;;;5397599;26;20475;-61
2024/04/12 01:23:40;;;;;;;3.87;3.10;;;17.00;46.00;;;;;;5396445;26;20279;-59
2024/04/12 01:26:09;;;;;;;4.00;3.27;;;17.00;45.90;;;;;;5398458;26;21022;-60
2024/04/12 01:28:38;;;;;;;3.37;2.80;;;17.00;45.80;;;;;;5395335;26;20481;-61
2024/04/12 01:31:05;;;;;;;3.80;2.57;;;16.90;45.70;;;;;;5396117;26;20473;-54
2024/04/12 01:33:33;;;;;;;4.47;2.50;;;16.90;45.60;;;;;;5399134;26;20456;-58
2024/04/12 01:36:05;;;;;;;2.80;2.60;;;16.70;46.20;;;;;;5397449;26;21107;-61
2024/04/12 01:38:37;;;;;;;2.80;2.60;;;16.60;46.50;;;;;;5395870;26;20566;-57
2024/04/12 01:41:05;;;;;;;3.57;3.17;;;16.50;46.80;;;;;;5395617;26;20585;-57
2024/04/12 01:43:36;;;;;;;3.83;3.00;;;16.60;46.40;;;;;;5398330;26;20483;-59
2024/04/12 01:46:04;;;;;;;3.20;2.87;;;16.60;46.10;;;;;;5400149;26;20865;-60
2024/04/12 01:48:33;;;;;;;4.33;2.90;;;16.60;46.00;;;;;;5396418;26;20479;-60
2024/04/12 01:51:03;;;;;;;2.83;2.63;;;16.70;46.00;;;;;;5392574;26;20518;-60
2024/04/12 01:53:38;;;;;;;3.03;2.60;;;16.70;45.80;;;;;;5397740;26;20949;-58
2024/04/12 01:56:05;;;;;;;3.90;3.03;;;16.70;45.60;;;;;;5397416;26;21308;-58
2024/04/12 01:58:34;;;;;;;5.80;2.80;;;16.60;45.50;;;;;;5397088;26;20479;-60
2024/04/12 02:01:02;;;;;;;3.50;2.57;;;16.50;45.70;;;;;;5397367;26;20463;-60
2024/04/12 02:03:30;;;;;;;6.63;2.90;;;16.50;45.90;;;;;;5399592;26;20517;-60
2024/04/12 02:06:05;;;;;;;3.07;2.80;;;16.50;46.10;;;;;;5397353;26;20602;-59
2024/04/12 02:08:32;;;;;;;3.63;3.13;;;16.50;46.10;;;;;;5396344;26;21089;-59
2024/04/12 02:10:58;;;;;;;3.50;3.07;;;16.50;46.10;;;;;;5400274;26;20562;-61
2024/04/12 02:13:29;;;;;;;4.60;2.80;;;16.40;46.50;;;;;;5395848;26;20586;-61
2024/04/12 02:15:56;;;;;;;9.60;3.03;;;16.00;47.40;;;;;;5394962;26;21297;-59
2024/04/12 02:18:22;;;;;;;3.10;2.80;;;16.00;47.40;;;;;;5399254;26;20620;-61
2024/04/12 02:20:49;;;;;;;5.60;2.80;;;16.10;47.30;;;;;;5394310;26;20543;-60
2024/04/12 02:23:15;;;;;;;3.47;2.70;;;16.10;47.50;;;;;;5388704;26;20469;-59
2024/04/12 02:25:43;;;;;;;6.67;2.90;;;16.20;47.40;;;;;;5405660;26;20523;-59
2024/04/12 02:28:13;;;;;;;3.87;2.83;;;16.30;47.30;;;;;;5388469;26;20884;-58
2024/04/12 02:30:53;;;;;;;5.30;2.87;;;16.30;47.10;;;;;;5394696;26;20456;-61
2024/04/12 02:33:20;;;;;;;3.20;2.77;;;16.10;46.80;;;;;;5396341;26;20544;-60
2024/04/12 02:35:47;;;;;;;3.00;2.70;;;15.70;48.10;;;;;;5399884;26;20915;-61
2024/04/12 02:38:20;;;;;;;3.83;3.03;;;15.80;48.20;;;;;;5396199;26;20576;-61
2024/04/12 02:40:48;;;;;;;3.40;2.93;;;15.80;48.10;;;;;;5403978;26;21420;-59
2024/04/12 02:43:17;;;;;;;5.43;3.00;;;15.70;48.60;;;;;;5398750;26;20465;-57
2024/04/12 02:45:50;;;;;;;6.57;2.80;;;15.70;48.60;;;;;;5393959;26;20543;-59
2024/04/12 02:48:22;;;;;;;3.90;2.47;;;15.90;48.00;;;;;;5398029;26;21006;-57
2024/04/12 02:50:57;;;;;;;2.83;2.50;;;15.60;48.70;;;;;;5395197;26;20468;-57
2024/04/12 02:53:24;;;;;;;6.17;3.43;;;15.60;49.00;;;;;;5408488;26;20875;-58
2024/04/12 02:56:11;;;;;;;3.93;3.07;;;15.60;48.60;;;;;;5404663;26;20479;-59
2024/04/12 02:58:40;;;;;;;2.70;2.50;;;15.70;47.90;;;;;;5406123;26;20958;-58
2024/04/12 03:01:11;;;;;;;3.17;2.80;;;15.70;47.80;;;;;;5408206;26;20459;-57
2024/04/12 03:03:41;;;;;;;3.93;2.77;;;15.80;47.60;;;;;;5390720;26;20526;-60
2024/04/12 03:06:09;;;;;;;4.73;2.90;;;15.70;47.90;;;;;;5406486;26;20518;-59
2024/04/12 03:08:40;;;;;;;4.70;3.10;;;15.60;48.20;;;;;;5403779;26;20619;-58
2024/04/12 03:11:13;;;;;;;4.70;3.20;;;15.60;48.00;;;;;;5385118;26;20473;-57
2024/04/12 03:13:40;;;;;;;4.50;3.10;;;15.40;48.10;;;;;;5369070;26;20563;-59
2024/04/12 03:19:28;;;;;;;3.23;2.90;;;14.80;49.60;;;;;;5397443;26;21113;-56
2024/04/12 03:21:53;;;;;;;6.47;3.23;;;14.60;50.00;;;;;;5398632;26;20479;-59
2024/04/12 03:24:19;;;;;;;2.90;2.63;;;14.40;50.50;;;;;;5397402;26;20247;-57
2024/04/12 03:26:47;;;;;;;3.63;3.17;;;14.20;50.80;;;;;;5404185;26;20934;-61
2024/04/12 03:29:13;;;;;;;4.57;3.20;;;13.80;51.90;;;;;;5396219;26;20318;-58
2024/04/12 03:31:38;;;;;;;4.63;2.90;;;13.50;52.30;;;;;;5398016;26;20463;-58
2024/04/12 03:34:08;;;;;;;6.37;3.80;;;12.90;55.90;;;;;;5400302;26;20584;-57
2024/04/12 03:41:47;;;;;;;9.17;2.87;;;12.50;55.40;;;;;;5392159;26;20621;-57
2024/04/12 03:44:18;;;;;;;4.83;3.57;;;12.50;55.00;;;;;;5397102;26;21144;-58
2024/04/12 03:46:49;;;;;;;3.80;3.30;;;12.60;54.90;;;;;;5402952;26;20541;-58
2024/04/12 03:49:20;;;;;;;7.00;3.00;;;12.80;54.40;;;;;;5400177;26;20474;-59
2024/04/12 03:51:50;;;;;;;5.43;3.50;;;13.00;54.00;;;;;;5407126;26;21112;-59
2024/04/12 03:54:21;;;;;;;6.77;3.40;;;13.20;53.40;;;;;;5404606;26;20612;-59
2024/04/12 03:56:49;;;;;;;4.40;3.40;;;13.20;53.10;;;;;;5399479;26;20592;-57
2024/04/12 03:59:19;;;;;;;3.23;2.93;;;13.10;53.40;;;;;;5402699;26;20483;-56
2024/04/12 04:01:45;;;;;;;4.20;3.50;;;13.00;53.70;;;;;;5396717;26;20479;-59
2024/04/12 04:04:17;;;;;;;7.60;3.70;;;12.80;54.20;;;;;;5401334;26;20546;-58
2024/04/12 04:06:48;;;;;;;3.27;3.03;;;12.80;54.40;;;;;;5399884;26;20535;-61
2024/04/12 04:09:19;;;;;;;3.67;2.90;;;12.90;54.90;;;;;;5393861;26;20456;-60
2024/04/12 04:11:45;;;;;;;4.20;3.50;;;12.80;54.30;;;;;;5398967;26;20483;-61
2024/04/12 04:14:13;;;;;;;4.40;3.47;;;12.70;54.70;;;;;;5394537;26;20484;-57
2024/04/12 04:16:42;;;;;;;6.43;3.00;;;12.80;54.50;;;;;;5399176;26;20471;-58
2024/04/12 04:19:12;;;;;;;6.00;3.30;;;12.90;54.00;;;;;;5397913;26;20588;-59
2024/04/12 04:21:41;;;;;;;3.37;3.07;;;13.00;53.80;;;;;;5398297;26;20467;-58
2024/04/12 04:24:10;;;;;;;3.53;3.23;;;13.10;53.60;;;;;;5398625;26;20484;-55
2024/04/12 04:26:42;;;;;;;6.97;3.00;;;13.20;53.30;;;;;;5400477;26;20581;-59
2024/04/12 04:29:11;;;;;;;5.43;3.03;;;13.20;53.10;;;;;;5395486;26;20521;-58
2024/04/12 04:31:51;;;;;;;5.43;3.20;;;13.20;52.90;;;;;;5406085;26;21014;-56
2024/04/12 04:34:17;;;;;;;4.30;3.67;;;13.10;53.00;;;;;;5411408;26;20541;-58
2024/04/12 04:36:45;;;;;;;4.57;4.03;;;13.10;53.20;;;;;;5390075;26;20475;-60
2024/04/12 04:39:15;;;;;;;7.53;5.10;;;13.00;53.40;;;;;;5406462;26;20476;-57
2024/04/12 04:41:45;;;;;;;6.43;4.27;;;12.90;53.50;;;;;;5387854;26;21047;-59
2024/04/12 04:44:14;;;;;;;4.87;3.60;;;12.90;53.60;;;;;;5388295;26;20926;-57
2024/04/12 04:46:46;;;;;;;4.03;3.53;;;12.80;54.20;;;;;;5398888;26;20572;-56
2024/04/12 04:49:13;;;;;;;4.43;3.40;;;12.70;54.70;;;;;;5377087;26;20473;-56
2024/04/12 04:51:39;;;;;;;4.70;3.13;;;12.70;54.80;;;;;;5382592;26;20573;-57
2024/04/12 04:54:13;;;;;;;4.20;3.23;;;12.60;54.70;;;;;;5387173;26;20590;-54
2024/04/12 04:56:43;;;;;;;4.63;3.40;;;12.60;54.70;;;;;;5400367;26;20489;-59
2024/04/12 04:59:09;;;;;;;5.77;3.83;;;12.60;54.80;;;;;;5410687;26;20536;-58
2024/04/12 05:01:35;;;;;;;3.93;3.57;;;12.60;55.20;;;;;;5384441;26;20980;-59
2024/04/12 05:04:02;;;;;;;4.13;3.73;;;12.40;55.30;;;;;;5398017;26;20959;-56
2024/04/12 05:06:29;;;;;;;4.70;3.70;;;12.30;55.80;;;;;;5398585;26;20300;-56
2024/04/12 05:08:56;;;;;;;3.70;3.40;;;11.90;56.60;;;;;;5406922;26;21143;-57
2024/04/12 05:11:23;;;;;;;6.40;3.80;;;11.80;56.90;;;;;;5400782;26;20467;-56
2024/04/12 05:13:55;;;;;;;5.97;4.03;;;11.50;57.90;;;;;;5395884;26;20535;-56
2024/04/12 05:16:22;;;;;;;6.90;3.60;;;11.60;57.90;;;;;;5393403;26;21065;-58
2024/04/12 05:18:48;;;;;;;4.30;3.00;;;12.00;60.40;;;;;;5399723;26;20510;-58
2024/04/12 05:21:16;;;;;;;6.90;3.37;;;12.60;59.80;;;;;;5397186;26;20480;-58
2024/04/12 05:23:42;;;;;;;4.17;3.80;;;13.00;57.50;;;;;;5397092;26;20523;-60
2024/04/12 05:26:09;;;;;;;7.43;3.40;;;13.60;56.00;;;;;;5398129;26;20463;-58
2024/04/12 05:28:35;;;;;;;4.00;3.30;;;14.10;54.00;;;;;;5396465;26;20279;-58
2024/04/12 05:31:02;;;;;;;5.17;3.73;;;14.40;52.40;;;;;;5400432;26;21075;-58
2024/04/12 05:33:29;;;;;;;6.60;3.50;;;14.40;51.90;;;;;;5401500;26;20480;-59
2024/04/12 05:35:55;;;;;;;5.43;3.37;;;14.60;51.30;;;;;;5394570;26;20471;-58
2024/04/12 05:38:52;;;;;;;4.37;3.97;;;14.50;51.20;;;;;;5393113;26;20948;-58
2024/04/12 05:41:33;;;;;;;5.53;3.80;;;14.20;51.60;;;;;;5398461;26;20479;-55
2024/04/12 05:43:59;;;;;;;3.73;3.37;;;14.20;51.50;;;;;;5399713;26;20575;-58
2024/04/12 05:46:25;;;;;;;10.03;3.50;;;13.90;52.80;;;;;;5396596;26;20481;-58
2024/04/12 05:48:50;;;;;;;5.43;3.83;;;14.00;52.10;;;;;;5402408;26;20455;-59
2024/04/12 05:51:16;;;;;;;7.83;3.67;;;14.20;51.90;;;;;;5389550;26;20230;-58
2024/04/12 05:53:41;;;;;;;4.57;3.20;;;14.50;51.30;;;;;;5401409;26;20249;-59
2024/04/12 05:56:25;;;;;;;5.90;3.70;;;14.80;50.80;;;;;;5396462;26;20301;-59
2024/04/12 05:58:51;;;;;;;4.37;2.90;;;15.10;50.20;;;;;;5387872;26;20281;-58
2024/04/12 06:01:17;;;;;;;3.67;3.30;;;15.40;49.80;;;;;;5398955;26;21162;-58
2024/04/12 06:03:42;;;;;;;3.97;3.57;;;15.50;50.00;;;;;;5405111;26;20238;-56
2024/04/12 06:06:12;;;;;;;5.80;3.17;;;15.30;49.60;;;;;;5399533;26;20665;-57
2024/04/12 06:08:38;;;;;;;7.33;3.77;;;15.40;49.50;;;;;;5388533;26;20242;-59
2024/04/12 06:11:08;;;;;;;5.83;3.80;;;15.50;49.80;;;;;;5395493;26;20471;-59
2024/04/12 06:13:35;;;;;;;4.10;3.40;;;15.50;49.70;;;;;;5409077;26;20467;-58
2024/04/12 06:16:02;;;;;;;7.53;3.97;;;15.30;50.00;;;;;;5406711;26;20649;-59
2024/04/12 06:18:28;;;;;;;4.83;3.17;;;15.40;50.10;;;;;;5395207;26;21039;-59
2024/04/12 06:20:55;;;;;;;3.70;3.40;;;15.50;49.70;;;;;;5398532;26;20467;-57
2024/04/12 06:23:21;;;;;;;3.60;3.30;;;15.80;50.20;;;;;;5397246;26;20491;-58
2024/04/12 06:25:49;;;;;;;5.13;3.27;;;15.60;49.60;;;;;;5404404;26;20464;-58
2024/04/12 06:28:16;;;;;;;7.90;3.63;;;15.40;50.10;;;;;;5393233;26;20524;-57
2024/04/12 06:30:43;;;;;;;6.00;3.77;;;15.60;49.90;;;;;;5382921;26;20861;-57
2024/04/12 06:33:12;;;;;;;4.30;3.20;;;15.50;50.00;;;;;;5407987;26;20486;-58
2024/04/12 06:35:40;;;;;;;3.83;3.50;;;15.40;50.30;;;;;;5396073;26;20520;-56
2024/04/12 06:38:08;;;;;;;5.00;3.57;;;15.60;50.20;;;;;;5399598;26;20551;-56
2024/04/12 06:40:37;;;;;;;6.30;4.23;;;15.90;49.80;;;;;;5401322;26;20513;-57
2024/04/12 06:43:11;;;;;;;3.40;3.20;;;16.00;49.70;;;;;;5401911;26;20477;-57
2024/04/12 06:45:43;;;;;;;5.10;3.80;;;16.30;49.20;;;;;;5412649;26;20526;-57
2024/04/12 06:48:10;;;;;;;4.47;4.07;;;15.90;49.50;;;;;;5395993;26;20515;-55
2024/04/12 06:50:36;;;;;;;4.30;3.23;;;16.20;49.40;;;;;;5411017;26;20471;-56
2024/04/12 06:53:08;;;;;;;5.23;3.80;;;16.50;48.90;;;;;;5386389;26;20529;-58
2024/04/12 06:55:45;;;;;;;6.67;3.60;;;16.90;48.40;;;;;;5404681;26;21395;-58
2024/04/12 06:58:17;;;;;;;5.27;4.33;;;17.30;47.90;;;;;;5412806;26;20513;-58
2024/04/12 07:00:46;;;;;;;8.13;3.47;;;17.50;47.10;;;;;;5406184;26;20467;-57
2024/04/12 07:03:15;;;;;;;5.47;3.60;;;17.70;46.40;;;;;;5404944;26;20815;-55
2024/04/12 07:05:47;;;;;;;4.60;4.20;;;17.50;46.70;;;;;;5408977;26;20475;-56
2024/04/12 07:08:16;;;;;;;5.00;4.40;;;17.00;47.60;;;;;;5410855;26;21152;-58
2024/04/12 07:10:48;;;;;;;6.30;4.43;;;17.00;48.30;;;;;;5399482;26;20465;-57
2024/04/12 07:13:17;;;;;;;6.97;3.70;;;16.80;48.90;;;;;;5394572;26;20550;-58
2024/04/12 07:15:48;;;;;;;4.80;4.30;;;17.10;48.70;;;;;;5400958;26;20924;-59
2024/04/12 07:18:15;;;;;;;6.57;4.03;;;17.40;47.60;;;;;;5408455;26;20557;-59
2024/04/12 07:20:44;;;;;;;4.40;3.93;;;17.20;47.80;;;;;;5399252;26;20529;-58
2024/04/12 07:23:10;;;;;;;7.43;4.17;;;17.40;47.30;;;;;;5388050;26;20464;-55
2024/04/12 07:25:39;;;;;;;4.23;3.33;;;17.60;47.40;;;;;;5411167;26;20974;-57
2024/04/12 07:28:06;;;;;;;5.40;4.27;;;17.90;47.10;;;;;;5412094;26;20549;-59
2024/04/12 07:30:32;;;;;;;5.03;4.10;;;18.00;46.60;;;;;;5388465;26;20469;-57
2024/04/12 07:32:58;;;;;;;4.60;3.60;;;18.20;46.10;;;;;;5406342;26;20471;-57
2024/04/12 07:35:26;;;;;;;6.33;4.53;;;18.40;45.90;;;;;;5409734;26;20528;-58
2024/04/12 07:37:59;;;;;;;5.67;4.13;;;18.80;46.40;;;;;;5408060;26;20352;-57
2024/04/12 07:40:29;;;;;;;7.30;4.10;;;19.00;45.50;;;;;;5402719;26;20575;-59
2024/04/12 07:42:57;;;;;;;5.50;4.27;;;19.40;45.00;;;;;;5408471;26;20479;-58
2024/04/12 07:45:26;;;;;;;4.30;3.77;;;19.70;44.50;;;;;;5406133;26;20475;-58
2024/04/12 07:48:00;;;;;;;4.17;3.40;;;19.90;43.70;;;;;;5408935;26;20470;-58
2024/04/12 07:50:31;;;;;;;3.60;3.30;;;20.20;43.50;;;;;;5389544;26;21383;-58
2024/04/12 07:53:10;;;;;;;4.17;3.77;;;20.50;43.10;;;;;;5400818;26;20475;-60
2024/04/12 07:55:52;;;;;;;6.67;3.83;;;20.30;42.10;;;;;;5397937;26;20528;-59
2024/04/12 07:58:18;;;;;;;10.30;4.53;;;20.40;42.70;;;;;;5400394;26;21336;-57
2024/04/12 08:00:46;;;;;;;5.27;4.77;;;20.60;42.20;;;;;;5397988;26;20590;-59
2024/04/12 08:03:16;;;;;;;6.73;4.17;;;20.80;42.20;;;;;;5394757;26;20238;-59
2024/04/12 08:06:03;;;;;;;4.10;3.73;;;21.00;42.10;;;;;;5390464;26;20522;-59
2024/04/12 08:08:30;;;;;;;6.40;4.47;;;21.20;42.30;;;;;;5407173;26;20479;-58
2024/04/12 08:11:11;;;;;;;9.40;4.60;;;21.30;41.00;;;;;;5401546;26;20483;-59
2024/04/12 08:13:50;;;;;;;3.97;3.67;;;21.40;40.50;;;;;;5386623;26;20557;-60
2024/04/12 08:16:16;;;;;;;5.83;4.53;;;21.60;39.90;;;;;;5402718;26;20522;-58
2024/04/12 08:18:44;;;;;;;7.00;4.10;;;21.50;40.10;;;;;;5390166;26;20812;-59
2024/04/12 08:21:12;;;;;;;6.87;4.70;;;21.70;40.10;;;;;;5394184;26;21074;-59
2024/04/12 08:23:44;;;;;;;4.50;3.73;;;21.70;39.70;;;;;;5402041;26;20916;-59
2024/04/12 08:26:11;;;;;;;5.03;4.50;;;21.40;39.90;;;;;;5398926;26;20461;-59
2024/04/12 08:28:40;;;;;;;5.10;4.10;;;21.40;40.20;;;;;;5394116;26;20477;-59
2024/04/12 08:31:10;;;;;;;4.93;4.07;;;21.80;40.00;;;;;;5395796;26;22182;-59
2024/04/12 08:33:40;;;;;;;9.40;4.90;;;22.00;39.40;;;;;;5389081;26;20475;-60
2024/04/12 08:36:13;;;;;;;5.93;5.33;;;22.30;39.40;;;;;;5399613;26;20468;-60
2024/04/12 08:38:54;;;;;;;6.33;4.23;;;22.40;39.00;;;;;;5392995;26;20529;-59
2024/04/12 08:41:24;;;;;;;4.80;4.40;;;22.60;38.60;;;;;;5393465;26;20464;-59
2024/04/12 08:43:58;;;;;;;7.33;4.73;;;22.50;38.60;;;;;;5382863;26;20469;-59
2024/04/12 08:46:33;;;;;;;4.47;3.97;;;22.50;38.90;;;;;;5383894;26;20535;-58
2024/04/12 08:48:59;;;;;;;6.50;4.37;;;22.60;38.80;;;;;;5382664;26;20473;-57
2024/04/12 08:51:32;;;;;;;5.20;4.33;;;22.80;39.50;;;;;;5397830;26;20463;-58
2024/04/12 08:54:03;;;;;;;5.97;4.90;;;23.10;38.80;;;;;;5392093;26;20536;-58
2024/04/12 08:56:29;;;;;;;4.70;4.20;;;23.10;38.50;;;;;;5392840;26;20570;-57
2024/04/12 08:59:05;;;;;;;4.73;3.80;;;23.30;38.00;;;;;;5412015;26;20485;-59
2024/04/12 09:01:31;;;;;;;7.13;4.60;;;23.50;37.90;;;;;;5399859;26;20772;-58
2024/04/12 09:04:12;;;;;;;6.20;5.03;;;23.70;38.20;;;;;;5396761;26;21025;-58
2024/04/12 09:06:38;;;;;;;5.67;3.53;;;23.80;37.50;;;;;;5361152;26;20487;-59
2024/04/12 09:09:04;;;;;;;7.10;5.03;;;23.90;37.30;;;;;;5402749;26;20463;-59
2024/04/12 09:11:31;;;;;;;6.17;5.57;;;24.00;37.20;;;;;;5396743;26;20249;-59
2024/04/12 09:14:08;;;;;;;7.20;4.17;;;23.90;37.30;;;;;;5403056;26;20245;-59
2024/04/12 09:16:43;;;;;;;7.37;5.60;;;24.10;37.20;;;;;;5401056;26;20586;-59
2024/04/12 09:19:14;;;;;;;7.30;4.93;;;24.30;36.40;;;;;;5394509;26;20467;-59
2024/04/12 09:21:47;;;;;;;7.40;5.30;;;24.40;36.20;;;;;;5384147;26;20587;-57
2024/04/12 09:24:21;;;;;;;8.87;5.70;;;24.50;36.50;;;;;;5389483;26;20516;-57
2024/04/12 09:26:56;;;;;;;8.93;6.50;;;24.60;36.10;;;;;;5363749;26;20593;-59
2024/04/12 09:29:28;;;;;;;8.67;6.10;;;24.60;35.90;;;;;;5389083;26;20845;-58
2024/04/12 09:34:46;;;;;;;8.87;4.77;;;24.70;36.10;;;;;;5383531;26;20526;-59
2024/04/12 09:40:26;;;;;;;6.33;4.70;;;25.20;36.00;;;;;;5258126;27;20488;-59
2024/04/12 09:45:27;;;;;;;5.50;4.37;;;25.70;36.20;;;;;;5325159;26;20549;-60
2024/04/12 10:38:03;;;;;;;7.20;6.50;;;28.40;31.70;;;;;;5397338;26;20521;-60
2024/04/12 10:40:30;;;;;;;8.60;5.17;;;28.60;30.60;;;;;;5394018;26;21067;-60
2024/04/12 10:42:57;;;;;;;7.90;6.50;;;28.80;30.00;;;;;;5397260;26;20234;-61
2024/04/12 10:45:25;;;;;;;7.97;6.53;;;28.80;29.80;;;;;;5387696;26;20477;-60
2024/04/12 10:47:54;;;;;;;6.50;6.00;;;28.70;29.50;;;;;;5392535;26;20525;-61
2024/04/12 10:50:23;;;;;;;7.80;6.53;;;28.70;29.90;;;;;;5401188;26;20572;-59
2024/04/12 10:52:49;;;;;;;11.20;5.90;;;28.80;29.80;;;;;;5401314;26;20588;-60
2024/04/12 10:55:19;;;;;;;9.93;6.73;;;28.70;29.70;;;;;;5396583;26;20467;-60
2024/04/12 10:57:49;;;;;;;10.40;5.40;;;28.30;30.10;;;;;;5387682;26;21382;-60
2024/04/12 11:00:19;;;;;;;6.17;4.57;;;28.40;30.60;;;;;;5397440;26;20904;-61
2024/04/12 11:02:54;;;;;;;9.63;5.20;;;28.80;31.30;;;;;;5397191;26;20476;-60
2024/04/12 11:07:48;;;;;;;5.97;5.10;;;29.10;29.50;;;;;;5395054;26;20487;-58
2024/04/12 11:10:24;;;;;;;6.30;5.10;;;28.90;29.00;;;;;;5396609;26;20521;-61
2024/04/12 11:13:01;;;;;;;7.53;5.10;;;29.00;29.60;;;;;;5401670;26;21025;-61
2024/04/12 11:31:52;;;;;;;7.20;4.97;;;29.40;30.00;;;;;;5406048;26;20546;-61
2024/04/12 11:34:23;;;;;;;6.90;5.03;;;29.40;30.00;;;;;;5393241;26;20526;-60
2024/04/12 11:36:53;;;;;;;5.53;4.80;;;29.40;30.20;;;;;;5389727;26;20473;-59
2024/04/12 11:39:25;;;;;;;5.30;4.80;;;29.40;29.00;;;;;;5394463;26;20471;-60
2024/04/12 11:41:52;;;;;;;7.40;6.23;;;29.40;29.80;;;;;;5400367;26;20479;-60
2024/04/12 11:44:18;;;;;;;5.87;5.20;;;29.50;29.40;;;;;;5390921;26;21168;-60
2024/04/12 11:46:48;;;;;;;6.63;5.23;;;29.50;30.00;;;;;;5396807;26;20587;-58
2024/04/12 11:49:24;;;;;;;9.13;6.50;;;29.70;29.60;;;;;;5409416;26;20268;-59
2024/04/12 11:51:55;;;;;;;8.60;6.53;;;29.90;29.60;;;;;;5391881;26;20476;-59
2024/04/12 11:54:30;;;;;;;10.50;6.00;;;30.00;28.80;;;;;;5408863;26;21002;-60
2024/04/12 11:57:00;;;;;;;6.10;4.90;;;30.10;29.40;;;;;;5411716;26;20592;-59
2024/04/12 11:59:30;;;;;;;9.33;5.67;;;30.10;30.90;;;;;;5411270;26;20459;-59
2024/04/12 12:02:04;;;;;;;8.37;5.23;;;30.00;30.00;;;;;;5406652;26;20516;-62
2024/04/12 12:04:30;;;;;;;7.53;6.07;;;29.90;29.00;;;;;;5399948;26;20529;-62
2024/04/12 12:06:59;;;;;;;7.90;6.43;;;29.90;28.90;;;;;;5398801;26;20487;-60
2024/04/12 12:09:31;;;;;;;6.93;6.13;;;29.70;29.00;;;;;;5395494;26;20535;-60
2024/04/12 12:12:00;;;;;;;11.33;5.93;;;29.60;28.80;;;;;;5406254;26;20520;-61
2024/04/12 12:14:26;;;;;;;6.57;5.40;;;29.50;29.00;;;;;;5408947;26;20531;-60
2024/04/12 12:16:53;;;;;;;7.80;6.83;;;29.70;29.20;;;;;;5393779;26;20547;-59
2024/04/12 12:19:19;;;;;;;8.00;5.10;;;29.70;29.90;;;;;;5379029;26;20465;-61
2024/04/12 12:21:45;;;;;;;5.87;5.30;;;29.80;30.60;;;;;;5398455;26;20554;-59
2024/04/12 12:24:11;;;;;;;5.80;4.70;;;30.10;29.90;;;;;;5396626;26;20231;-60
2024/04/12 12:26:37;;;;;;;7.00;6.40;;;30.30;30.30;;;;;;5386403;26;20597;-61
2024/04/12 12:29:06;;;;;;;8.20;6.53;;;30.40;28.80;;;;;;5395843;26;20241;-61
2024/04/12 12:31:32;;;;;;;6.87;5.23;;;30.10;28.00;;;;;;5396047;26;20530;-61
2024/04/12 12:33:57;;;;;;;7.23;6.57;;;30.10;30.00;;;;;;5398094;26;20471;-61
2024/04/12 12:36:25;;;;;;;8.30;6.53;;;30.30;29.00;;;;;;5398888;26;20604;-60
2024/04/12 12:38:51;;;;;;;6.70;6.10;;;30.40;28.40;;;;;;5386428;26;20278;-61
2024/04/12 12:41:17;;;;;;;6.87;5.53;;;30.20;28.70;;;;;;5394486;26;20469;-60
2024/04/12 12:43:47;;;;;;;6.87;6.27;;;30.20;29.60;;;;;;5383004;26;20314;-61
2024/04/12 12:46:14;;;;;;;10.03;7.37;;;30.40;28.20;;;;;;5390398;26;20339;-61
2024/04/12 12:48:40;;;;;;;7.37;5.87;;;30.40;28.30;;;;;;5378273;26;20476;-61
2024/04/12 12:51:08;;;;;;;9.27;7.13;;;30.60;28.70;;;;;;5401194;26;20949;-60
2024/04/12 12:53:34;;;;;;;9.07;6.73;;;30.60;29.80;;;;;;5398817;26;20479;-61
2024/04/12 12:56:00;;;;;;;8.77;6.43;;;30.70;29.00;;;;;;5388984;26;21065;-61
2024/04/12 12:58:26;;;;;;;9.70;7.13;;;30.60;30.20;;;;;;5384728;26;20539;-61
2024/04/12 13:00:59;;;;;;;11.80;6.63;;;30.60;30.00;;;;;;5404909;26;20288;-61
2024/04/12 13:03:31;;;;;;;10.00;7.37;;;30.40;30.30;;;;;;5411098;26;20276;-61
2024/04/12 13:05:57;;;;;;;9.50;6.70;;;30.50;29.60;;;;;;5395102;26;20468;-61
2024/04/12 13:08:25;;;;;;;9.03;6.70;;;30.60;28.90;;;;;;5386632;26;20936;-61
2024/04/12 13:10:56;;;;;;;8.80;5.67;;;30.80;29.00;;;;;;5388423;26;20473;-61
2024/04/12 13:13:22;;;;;;;7.50;6.80;;;31.10;29.40;;;;;;5410445;26;20854;-61
2024/04/12 13:15:55;;;;;;;7.77;6.93;;;31.20;28.70;;;;;;5402167;26;20787;-61
2024/04/12 13:18:27;;;;;;;8.43;7.33;;;31.10;28.90;;;;;;5391907;26;20472;-59
2024/04/12 13:20:54;;;;;;;8.90;6.77;;;31.10;28.90;;;;;;5391070;26;20582;-59
2024/04/12 13:23:22;;;;;;;7.47;6.73;;;31.10;28.60;;;;;;5408758;26;20463;-61
2024/04/12 13:25:48;;;;;;;7.57;6.33;;;31.00;28.60;;;;;;5398612;26;20876;-60
2024/04/12 13:28:13;;;;;;;9.70;6.67;;;30.80;29.00;;;;;;5387487;26;20468;-60
2024/04/12 13:30:42;;;;;;;11.77;7.30;;;30.80;28.70;;;;;;5400625;26;20795;-59
2024/04/12 13:33:08;;;;;;;8.80;7.60;;;30.90;28.10;;;;;;5397427;26;20242;-61
2024/04/12 13:35:41;;;;;;;10.50;8.13;;;30.90;28.90;;;;;;5381562;26;20913;-61
2024/04/12 13:38:13;;;;;;;11.83;8.00;;;31.10;28.70;;;;;;5400657;26;20523;-61
2024/04/12 13:40:47;;;;;;;12.30;8.90;;;31.10;27.70;;;;;;5400142;26;20481;-61
2024/04/12 13:43:16;;;;;;;8.20;7.20;;;31.10;27.30;;;;;;5392468;26;20472;-60
2024/04/12 13:51:20;;;;;;;8.00;7.00;;;30.90;28.10;;;;;;5386065;26;20514;-61
2024/04/12 13:53:50;;;;;;;10.47;6.87;;;31.00;28.70;;;;;;5390975;26;20467;-61
2024/04/12 13:56:25;;;;;;;9.17;7.23;;;31.10;28.50;;;;;;5380556;26;20238;-61
2024/04/12 13:58:56;;;;;;;10.73;8.00;;;30.90;29.00;;;;;;5385550;26;20577;-61
2024/04/12 14:01:26;;;;;;;8.87;7.00;;;30.60;29.70;;;;;;5388655;26;20533;-61
2024/04/12 14:04:03;;;;;;;12.90;6.80;;;30.80;29.00;;;;;;5383819;26;20536;-60
2024/04/12 14:06:34;;;;;;;9.93;6.30;;;30.90;28.20;;;;;;5384260;26;20938;-60
2024/04/12 14:09:02;;;;;;;9.47;6.50;;;31.00;27.80;;;;;;5393499;26;20471;-61
2024/04/12 14:11:27;;;;;;;10.30;5.03;;;31.20;27.60;;;;;;5403840;26;20523;-60
2024/04/12 14:13:54;;;;;;;8.23;5.00;;;31.20;28.00;;;;;;5387269;26;20471;-59
2024/04/12 14:16:28;;;;;;;5.90;4.77;;;31.00;26.40;;;;;;5393078;26;20292;-60
2024/04/12 14:18:55;;;;;;;6.77;5.07;;;31.10;27.30;;;;;;5397714;26;20530;-61
2024/04/12 14:21:21;;;;;;;7.13;4.83;;;31.00;27.70;;;;;;5387151;26;20540;-60
2024/04/12 14:23:47;;;;;;;4.90;4.40;;;31.00;28.10;;;;;;5394248;26;20481;-61
2024/04/12 14:26:13;;;;;;;10.60;5.30;;;31.00;28.20;;;;;;5391520;26;20469;-60
2024/04/12 14:28:43;;;;;;;6.20;4.57;;;31.00;28.10;;;;;;5392953;26;21560;-60